Ever Unicorn — 9V7963 — position and weather

sailwx.info

Track history (hours):
 
Tides and Currents Weather Stations Pressure Air Temp Water Temp Dewpoint Dewpoint Depression Visibility Wind Speed Wind Dir Waves Ship Positions

Ever Unicorn

Last reported at 2017-Dec-11 16:57 UTC. Time now 2017-Dec-14 17:05 UTC.
Position N 49°18' W 123°13'.

Length 285 m; draft 12.3 m.

Type: Cargo ship. MMSI: 564995000.

Date/timePositionNaut miles runAvg speedWind from/ knotsBaromVisibWave heightAir tempDewpointWater temp
2017-Dec-11 16:57N 49°18' W 123°13'0 0.0
2017-Dec-11 16:30N 49°18' W 123°13'0 0.0
2017-Dec-11 16:00N 49°18' W 123°13'0 0.1
2017-Dec-11 15:30N 49°18' W 123°13'0 0.1
2017-Dec-11 15:00N 49°18' W 123°13'0 0.2
2017-Dec-11 14:30N 49°18' W 123°13'0 0.2
2017-Dec-11 14:00N 49°18' W 123°13'0 0.6
2017-Dec-11 13:30N 49°18' W 123°13'3 6.6
2017-Dec-11 13:01N 49°18' W 123°18'917.1
2017-Dec-11 12:31N 49°09' W 123°20'815.9
2017-Dec-11 12:01N 49°02' W 123°17'917.2
2017-Dec-11 11:31N 48°56' W 123°07'816.9
2017-Dec-11 11:00N 48°49' W 123°00'816.0
2017-Dec-11 10:31N 48°44' W 123°09'612.9
2017-Dec-11 10:01N 48°38' W 123°14'816.6
2017-Dec-11 09:31N 48°30' W 123°10'714.2
2017-Dec-11 09:00N 48°23' W 123°14'612.3
2017-Dec-11 08:30N 48°22' W 123°23'714.4
2017-Dec-11 08:00N 48°15' W 123°27'612.0
2017-Dec-11 07:30N 48°09' W 123°23'713.3
2017-Dec-11 07:00N 48°11' W 123°14'917.7
2017-Dec-11 06:30N 48°12' W 123°01'917.9
2017-Dec-11 06:00N 48°11' W 122°47'816.7
2017-Dec-11 05:30N 48°05' W 122°39'917.1
2017-Dec-11 05:00N 47°57' W 122°34'917.0
2017-Dec-11 04:30N 47°50' W 122°27'917.1
2017-Dec-11 04:00N 47°41' W 122°27'917.5
2017-Dec-11 03:30N 47°33' W 122°26'917.5
2017-Dec-11 03:00N 47°24' W 122°22'714.2
2017-Dec-11 02:30N 47°18' W 122°27'3 6.2
2017-Dec-11 01:59N 47°16' W 122°24'1 0.1
2017-Dec-10 14:55N 47°15' W 122°23'0 0.0
2017-Dec-10 14:19N 47°15' W 122°23'0 0.0
2017-Dec-10 04:52N 47°15' W 122°23'0 0.0
2017-Dec-09 22:46N 47°15' W 122°23'0 0.0
2017-Dec-09 22:28N 47°15' W 122°23'0 0.0
2017-Dec-09 17:16N 47°15' W 122°23'0 0.0
2017-Dec-09 16:10N 47°15' W 122°23'0 0.0
2017-Dec-09 14:55N 47°15' W 122°23'0 0.0
2017-Dec-09 14:16N 47°15' W 122°23'0 0.1
2017-Dec-09 13:46N 47°15' W 122°23'0 0.1
2017-Dec-09 13:28N 47°15' W 122°23'0 0.0
2017-Dec-09 12:46N 47°15' W 122°23'0 0.0
2017-Dec-09 07:49N 47°15' W 122°23'0 0.0
2017-Dec-09 05:31N 47°15' W 122°23'0 0.0
2017-Dec-09 05:22N 47°15' W 122°23'0 0.0
2017-Dec-09 04:49N 47°15' W 122°23'0 0.0
2017-Dec-08 23:04N 47°15' W 122°23'0 0.7
2017-Dec-08 22:52N 47°15' W 122°23'1 3.4
2017-Dec-08 22:28N 47°16' W 122°24'2 5.0
2017-Dec-08 22:00N 47°18' W 122°27'5 9.3
2017-Dec-08 21:30N 47°22' W 122°24'612.9
2017-Dec-08 21:00N 47°28' W 122°25'815.9
2017-Dec-08 20:30N 47°36' W 122°28'816.0
2017-Dec-08 20:00N 47°44' W 122°27'816.1
2017-Dec-08 19:30N 47°52' W 122°29'714.2
2017-Dec-08 19:00N 47°58' W 122°35'815.3
2017-Dec-08 18:31N 48°05' W 122°39'814.9
2017-Dec-08 18:00N 48°11' W 122°47'815.7
2017-Dec-08 17:30N 48°12' W 122°58'816.2
2017-Dec-08 17:00N 48°12' W 123°11'815.9
2017-Dec-08 16:30N 48°10' W 123°22'2 4.3
2017-Dec-08 16:00N 48°10' W 123°26'2 4.4
2017-Dec-08 15:30N 48°12' W 123°28'4 7.4
2017-Dec-08 15:00N 48°13' W 123°34'4 7.4
2017-Dec-08 14:30N 48°13' W 123°39'3 6.8
2017-Dec-08 14:00N 48°13' W 123°44'4 8.0
2017-Dec-08 13:30N 48°14' W 123°50'815.2
2017-Dec-08 13:00N 48°15' W 124°01'815.6
2017-Dec-08 12:30N 48°19' W 124°12'815.8
2017-Dec-08 12:00N 48°22' W 124°23'816.4
2017-Dec-08 11:30N 48°25' W 124°34'815.3
2017-Dec-08 11:00N 48°28' W 124°44'715.1
2017-Dec-08 10:30N 48°29' W 124°56'815.4
2017-Dec-08 10:00N 48°29' W 125°07'815.3
2017-Dec-08 09:30N 48°28' W 125°19'714.8
2017-Dec-08 09:00N 48°29' W 125°30'815.4
2017-Dec-08 08:30N 48°29' W 125°42'815.2
2017-Dec-08 08:00N 48°29' W 125°53'815.6
2017-Dec-08 07:30N 48°29' W 126°05'815.8
2017-Dec-08 07:00N 48°29' W 126°17'815.9
2017-Dec-08 06:30N 48°29' W 126°29'815.8
2017-Dec-08 06:00N 48°29' W 126°41'815.9
2017-Dec-08 05:30N 48°29' W 126°53'816.0
2017-Dec-08 05:00N 48°29' W 127°05'816.0
2017-Dec-08 04:30N 48°29' W 127°17'612.4
2017-Dec-08 04:00N 48°29' W 127°26'3013.5
2017-Dec-08 01:45N 48°29' W 128°12'7216.1
2017-Dec-07 21:16N 48°30' W 130°01'3316.2
2017-Dec-07 19:14N 48°30' W 130°51'416.1
2017-Dec-07 19:00N 48°30' W 130°56'816.1
2017-Dec-07 18:30N 48°30' W 131°08'816.2
2017-Dec-07 18:00N 48°30' W 131°21'1516.4
2017-Dec-07 17:06N 48°30' W 131°43'216.6
2017-Dec-07 17:00N 48°30' W 131°46'916.6
2017-Dec-07 16:27N 48°29' W 131°59'816.4
2017-Dec-07 15:58N 48°29' W 132°11'716.0
2017-Dec-07 15:30N 48°29' W 132°22'612.4
2017-Dec-07 15:00N 48°30' W 132°32'611.9
2017-Dec-07 14:30N 48°30' W 132°41'918.1
2017-Dec-07 14:00N 48°34' W 132°53'918.1
2017-Dec-07 13:30N 48°38' W 133°06'918.1
2017-Dec-07 13:00N 48°42' W 133°17'918.2
2017-Dec-07 12:30N 48°47' W 133°29'918.1
2017-Dec-07 12:00N 48°52' W 133°41'1017.9
2017-Dec-07 11:28N 48°56' W 133°54'818.1
2017-Dec-07 11:00N 48°60' W 134°05'917.9
2017-Dec-07 10:30N 49°04' W 134°18'  
Track history (hours):
 
Tides and Currents Weather Stations Pressure Air Temp Water Temp Dewpoint Dewpoint Depression Visibility Wind Speed Wind Dir Waves Ship Positions

Ever Unicorn

Last reported at 2017-Dec-11 16:57 UTC. Time now 2017-Dec-14 17:05 UTC.
Position N 49°18' W 123°13'.

Length 285 m; draft 12.3 m.

Type: Cargo ship. MMSI: 564995000.

Date/timePositionNaut miles runAvg speedWind from/ knotsBaromVisibWave heightAir tempDewpointWater temp
2017-Dec-11 16:57N 49°18' W 123°13'0 0.0
2017-Dec-11 16:30N 49°18' W 123°13'0 0.0
2017-Dec-11 16:00N 49°18' W 123°13'0 0.1
2017-Dec-11 15:30N 49°18' W 123°13'0 0.1
2017-Dec-11 15:00N 49°18' W 123°13'0 0.2
2017-Dec-11 14:30N 49°18' W 123°13'0 0.2
2017-Dec-11 14:00N 49°18' W 123°13'0 0.6
2017-Dec-11 13:30N 49°18' W 123°13'3 6.6
2017-Dec-11 13:01N 49°18' W 123°18'917.1
2017-Dec-11 12:31N 49°09' W 123°20'815.9
2017-Dec-11 12:01N 49°02' W 123°17'917.2
2017-Dec-11 11:31N 48°56' W 123°07'816.9
2017-Dec-11 11:00N 48°49' W 123°00'816.0
2017-Dec-11 10:31N 48°44' W 123°09'612.9
2017-Dec-11 10:01N 48°38' W 123°14'816.6
2017-Dec-11 09:31N 48°30' W 123°10'714.2
2017-Dec-11 09:00N 48°23' W 123°14'612.3
2017-Dec-11 08:30N 48°22' W 123°23'714.4
2017-Dec-11 08:00N 48°15' W 123°27'612.0
2017-Dec-11 07:30N 48°09' W 123°23'713.3
2017-Dec-11 07:00N 48°11' W 123°14'917.7
2017-Dec-11 06:30N 48°12' W 123°01'917.9
2017-Dec-11 06:00N 48°11' W 122°47'816.7
2017-Dec-11 05:30N 48°05' W 122°39'917.1
2017-Dec-11 05:00N 47°57' W 122°34'917.0
2017-Dec-11 04:30N 47°50' W 122°27'917.1
2017-Dec-11 04:00N 47°41' W 122°27'917.5
2017-Dec-11 03:30N 47°33' W 122°26'917.5
2017-Dec-11 03:00N 47°24' W 122°22'714.2
2017-Dec-11 02:30N 47°18' W 122°27'3 6.2
2017-Dec-11 01:59N 47°16' W 122°24'1 0.1
2017-Dec-10 14:55N 47°15' W 122°23'0 0.0
2017-Dec-10 14:19N 47°15' W 122°23'0 0.0
2017-Dec-10 04:52N 47°15' W 122°23'0 0.0
2017-Dec-09 22:46N 47°15' W 122°23'0 0.0
2017-Dec-09 22:28N 47°15' W 122°23'0 0.0
2017-Dec-09 17:16N 47°15' W 122°23'0 0.0
2017-Dec-09 16:10N 47°15' W 122°23'0 0.0
2017-Dec-09 14:55N 47°15' W 122°23'0 0.0
2017-Dec-09 14:16N 47°15' W 122°23'0 0.1
2017-Dec-09 13:46N 47°15' W 122°23'0 0.1
2017-Dec-09 13:28N 47°15' W 122°23'0 0.0
2017-Dec-09 12:46N 47°15' W 122°23'0 0.0
2017-Dec-09 07:49N 47°15' W 122°23'0 0.0
2017-Dec-09 05:31N 47°15' W 122°23'0 0.0
2017-Dec-09 05:22N 47°15' W 122°23'0 0.0
2017-Dec-09 04:49N 47°15' W 122°23'0 0.0
2017-Dec-08 23:04N 47°15' W 122°23'0 0.7
2017-Dec-08 22:52N 47°15' W 122°23'1 3.4
2017-Dec-08 22:28N 47°16' W 122°24'2 5.0
2017-Dec-08 22:00N 47°18' W 122°27'5 9.3
2017-Dec-08 21:30N 47°22' W 122°24'612.9
2017-Dec-08 21:00N 47°28' W 122°25'815.9
2017-Dec-08 20:30N 47°36' W 122°28'816.0
2017-Dec-08 20:00N 47°44' W 122°27'816.1
2017-Dec-08 19:30N 47°52' W 122°29'714.2
2017-Dec-08 19:00N 47°58' W 122°35'815.3
2017-Dec-08 18:31N 48°05' W 122°39'814.9
2017-Dec-08 18:00N 48°11' W 122°47'815.7
2017-Dec-08 17:30N 48°12' W 122°58'816.2
2017-Dec-08 17:00N 48°12' W 123°11'815.9
2017-Dec-08 16:30N 48°10' W 123°22'2 4.3
2017-Dec-08 16:00N 48°10' W 123°26'2 4.4
2017-Dec-08 15:30N 48°12' W 123°28'4 7.4
2017-Dec-08 15:00N 48°13' W 123°34'4 7.4
2017-Dec-08 14:30N 48°13' W 123°39'3 6.8
2017-Dec-08 14:00N 48°13' W 123°44'4 8.0
2017-Dec-08 13:30N 48°14' W 123°50'815.2
2017-Dec-08 13:00N 48°15' W 124°01'815.6
2017-Dec-08 12:30N 48°19' W 124°12'815.8
2017-Dec-08 12:00N 48°22' W 124°23'816.4
2017-Dec-08 11:30N 48°25' W 124°34'815.3
2017-Dec-08 11:00N 48°28' W 124°44'715.1
2017-Dec-08 10:30N 48°29' W 124°56'815.4
2017-Dec-08 10:00N 48°29' W 125°07'815.3
2017-Dec-08 09:30N 48°28' W 125°19'714.8
2017-Dec-08 09:00N 48°29' W 125°30'815.4
2017-Dec-08 08:30N 48°29' W 125°42'815.2
2017-Dec-08 08:00N 48°29' W 125°53'815.6
2017-Dec-08 07:30N 48°29' W 126°05'815.8
2017-Dec-08 07:00N 48°29' W 126°17'815.9
2017-Dec-08 06:30N 48°29' W 126°29'815.8
2017-Dec-08 06:00N 48°29' W 126°41'815.9
2017-Dec-08 05:30N 48°29' W 126°53'816.0
2017-Dec-08 05:00N 48°29' W 127°05'816.0
2017-Dec-08 04:30N 48°29' W 127°17'612.4
2017-Dec-08 04:00N 48°29' W 127°26'3013.5
2017-Dec-08 01:45N 48°29' W 128°12'7216.1
2017-Dec-07 21:16N 48°30' W 130°01'3316.2
2017-Dec-07 19:14N 48°30' W 130°51'416.1
2017-Dec-07 19:00N 48°30' W 130°56'816.1
2017-Dec-07 18:30N 48°30' W 131°08'816.2
2017-Dec-07 18:00N 48°30' W 131°21'1516.4
2017-Dec-07 17:06N 48°30' W 131°43'216.6
2017-Dec-07 17:00N 48°30' W 131°46'916.6
2017-Dec-07 16:27N 48°29' W 131°59'816.4
2017-Dec-07 15:58N 48°29' W 132°11'716.0
2017-Dec-07 15:30N 48°29' W 132°22'612.4
2017-Dec-07 15:00N 48°30' W 132°32'611.9
2017-Dec-07 14:30N 48°30' W 132°41'918.1
2017-Dec-07 14:00N 48°34' W 132°53'918.1
2017-Dec-07 13:30N 48°38' W 133°06'918.1
2017-Dec-07 13:00N 48°42' W 133°17'918.2
2017-Dec-07 12:30N 48°47' W 133°29'918.1
2017-Dec-07 12:00N 48°52' W 133°41'1017.9
2017-Dec-07 11:28N 48°56' W 133°54'818.1
2017-Dec-07 11:00N 48°60' W 134°05'917.9
2017-Dec-07 10:30N 49°04' W 134°18'  

Dump ship's entire track history